Time;durP1;ratioP1;P1;durP2;ratioP2;P2;SDS_P1;SDS_P2;PMS_P1;PMS_P2;Temp;Humidity;BMP_temperature;BMP_pressure;BME280_temperature;BME280_humidity;BME280_pressure;Samples;Min_cycle;Max_cycle;Signal;HPM_P1;HPM_P2
2024/01/25 00:04:47;;;;;;;;;;;7.30;99.90;;;;;;5021427;28;20467;-85
2024/01/25 00:07:13;;;;;;;;;;;7.20;99.90;;;;;;5014311;28;20029;-85
2024/01/25 00:09:38;;;;;;;;;;;7.40;99.90;;;;;;4998184;28;19980;-86
2024/01/25 00:12:04;;;;;;;;;;;7.20;99.90;;;;;;5014454;28;19922;-86
2024/01/25 00:14:30;;;;;;;;;;;7.10;99.90;;;;;;4998076;28;19928;-86
2024/01/25 00:16:56;;;;;;;;;;;7.10;99.90;;;;;;5029075;28;19925;-84
2024/01/25 00:19:21;;;;;;;;;;;7.10;99.90;;;;;;5012924;28;19930;-85
2024/01/25 00:21:47;;;;;;;;;;;7.40;99.90;;;;;;4997664;28;20015;-84
2024/01/25 00:24:13;;;;;;;;;;;7.00;99.90;;;;;;5015761;28;20349;-85
2024/01/25 00:26:39;;;;;;;;;;;8.40;99.90;;;;;;5013469;28;20334;-86
2024/01/25 00:29:04;;;;;;;;;;;6.90;99.90;;;;;;5011862;28;19929;-85
2024/01/25 00:31:30;;;;;;;;;;;7.80;99.90;;;;;;5013797;28;19925;-85
2024/01/25 00:33:57;;;;;;;;;;;6.80;99.90;;;;;;5012515;28;20407;-84
2024/01/25 00:36:23;;;;;;;;;;;6.80;99.90;;;;;;5011513;28;20480;-84
2024/01/25 00:38:48;;;;;;;;;;;6.80;99.90;;;;;;4993807;28;19922;-85
2024/01/25 00:41:17;;;;;;;;;;;6.80;99.90;;;;;;4978512;28;19965;-85
2024/01/25 00:43:42;;;;;;;;;;;6.80;99.90;;;;;;5014444;28;19921;-85
2024/01/25 00:46:08;;;;;;;;;;;6.70;99.90;;;;;;5012765;28;19922;-85
2024/01/25 00:48:34;;;;;;;;;;;6.70;99.90;;;;;;5029555;28;19968;-84
2024/01/25 00:51:00;;;;;;;;;;;6.60;99.90;;;;;;5030790;28;20272;-85
2024/01/25 00:53:25;;;;;;;;;;;6.60;99.90;;;;;;5014026;28;19936;-85
2024/01/25 00:55:51;;;;;;;;;;;6.60;99.90;;;;;;5014343;28;19983;-85
2024/01/25 00:58:17;;;;;;;;;;;6.60;99.90;;;;;;4997639;28;19921;-85
2024/01/25 01:00:43;;;;;;;;;;;6.60;99.90;;;;;;5014702;28;19964;-85
2024/01/25 01:03:09;;;;;;;;;;;6.60;99.90;;;;;;5012676;28;19930;-85
2024/01/25 01:05:35;;;;;;;;;;;6.50;99.90;;;;;;4996854;28;20009;-85
2024/01/25 01:08:01;;;;;;;;;;;6.50;99.90;;;;;;5027157;28;19976;-85
2024/01/25 01:10:26;;;;;;;;;;;6.50;99.90;;;;;;5014088;28;20374;-85
2024/01/25 01:12:54;;;;;;;;;;;6.50;99.90;;;;;;5013529;28;19925;-85
2024/01/25 01:15:19;;;;;;;;;;;6.50;99.90;;;;;;5013859;28;20013;-85
2024/01/25 01:17:45;;;;;;;;;;;6.50;99.90;;;;;;5030304;28;19972;-85
2024/01/25 01:20:11;;;;;;;;;;;6.50;99.90;;;;;;5013778;28;20369;-84
2024/01/25 01:22:36;;;;;;;;;;;6.50;99.90;;;;;;5032229;28;19926;-85
2024/01/25 01:25:02;;;;;;;;;;;7.20;99.90;;;;;;5019975;28;19928;-85
2024/01/25 01:27:27;;;;;;;;;;;6.50;99.90;;;;;;5039274;28;19922;-86
2024/01/25 01:29:53;;;;;;;;;;;6.60;99.90;;;;;;5013780;28;19965;-84
2024/01/25 01:32:19;;;;;;;;;;;7.30;99.90;;;;;;5007604;28;19922;-84
2024/01/25 01:34:44;;;;;;;;;;;6.50;99.90;;;;;;5013760;28;19922;-84
2024/01/25 01:37:10;;;;;;;;;;;6.50;99.90;;;;;;5014264;28;19948;-85
2024/01/25 01:39:35;;;;;;;;;;;6.50;99.90;;;;;;4996939;28;19928;-84
2024/01/25 01:42:01;;;;;;;;;;;6.90;99.90;;;;;;4997041;28;19925;-85
2024/01/25 01:44:26;;;;;;;;;;;6.60;99.90;;;;;;5016336;28;20370;-85
2024/01/25 01:46:54;;;;;;;;;;;6.40;99.90;;;;;;4986046;28;19921;-83
2024/01/25 01:49:20;;;;;;;;;;;6.40;99.90;;;;;;5020112;28;19922;-84
2024/01/25 01:51:46;;;;;;;;;;;6.30;99.90;;;;;;5021045;28;19925;-84
2024/01/25 01:54:12;;;;;;;;;;;6.80;99.90;;;;;;5018710;28;19921;-85
2024/01/25 01:56:39;;;;;;;;;;;7.00;99.90;;;;;;5003983;28;19932;-84
2024/01/25 01:59:07;;;;;;;;;;;6.20;99.90;;;;;;5017257;28;19928;-84
2024/01/25 02:01:33;;;;;;;;;;;6.20;99.90;;;;;;4997417;28;20278;-84
2024/01/25 02:03:58;;;;;;;;;;;6.30;99.90;;;;;;5000507;28;19921;-84
2024/01/25 02:06:24;;;;;;;;;;;6.20;99.90;;;;;;5012509;28;19926;-84
2024/01/25 02:08:50;;;;;;;;;;;6.20;99.90;;;;;;4995378;28;19926;-84
2024/01/25 02:11:16;;;;;;;;;;;6.70;99.90;;;;;;5015598;28;20024;-85
2024/01/25 02:13:42;;;;;;;;;;;6.30;99.90;;;;;;4999568;28;20008;-84
2024/01/25 02:16:08;;;;;;;;;;;6.20;99.90;;;;;;5033426;28;20340;-85
2024/01/25 02:18:34;;;;;;;;;;;6.20;99.90;;;;;;5033526;28;19922;-85
2024/01/25 02:20:59;;;;;;;;;;;6.70;99.90;;;;;;4999990;28;20300;-85
2024/01/25 02:23:25;;;;;;;;;;;5.80;99.90;;;;;;5000305;28;20028;-85
2024/01/25 02:25:50;;;;;;;;;;;7.40;99.90;;;;;;5016297;28;19925;-84
2024/01/25 02:28:16;;;;;;;;;;;6.30;99.90;;;;;;4983603;28;19921;-85
2024/01/25 02:30:42;;;;;;;;;;;6.20;99.90;;;;;;5016453;28;20000;-85
2024/01/25 02:33:07;;;;;;;;;;;6.10;99.90;;;;;;5016020;28;20332;-85
2024/01/25 02:35:33;;;;;;;;;;;6.10;99.90;;;;;;4998702;28;19932;-85
2024/01/25 02:37:59;;;;;;;;;;;6.10;99.90;;;;;;5032218;28;19921;-85
2024/01/25 02:40:24;;;;;;;;;;;6.30;99.90;;;;;;5015279;28;20165;-85
2024/01/25 02:42:50;;;;;;;;;;;6.10;99.90;;;;;;4999543;28;19975;-85
2024/01/25 02:45:16;;;;;;;;;;;6.00;99.90;;;;;;4999974;28;19929;-84
2024/01/25 02:47:41;;;;;;;;;;;6.00;99.90;;;;;;5000001;28;20258;-84
2024/01/25 02:50:07;;;;;;;;;;;6.00;99.90;;;;;;4999966;28;19922;-84
2024/01/25 02:52:33;;;;;;;;;;;6.00;99.90;;;;;;5000364;28;19976;-84
2024/01/25 02:54:58;;;;;;;;;;;6.00;99.90;;;;;;5015862;28;20385;-85
2024/01/25 02:57:24;;;;;;;;;;;7.30;99.90;;;;;;5031897;28;19961;-85
2024/01/25 02:59:50;;;;;;;;;;;6.60;99.90;;;;;;5018769;28;19921;-85
2024/01/25 03:02:18;;;;;;;;;;;5.90;99.90;;;;;;4997607;28;19905;-84
2024/01/25 03:04:44;;;;;;;;;;;6.30;99.90;;;;;;5014529;28;19921;-84
2024/01/25 03:07:09;;;;;;;;;;;5.90;99.90;;;;;;5015302;28;19948;-84
2024/01/25 03:09:35;;;;;;;;;;;5.90;99.90;;;;;;5011825;28;20002;-84
2024/01/25 03:12:00;;;;;;;;;;;6.20;99.90;;;;;;5011471;28;20411;-85
2024/01/25 03:14:26;;;;;;;;;;;5.90;99.90;;;;;;4985202;28;19922;-85
2024/01/25 03:16:51;;;;;;;;;;;6.40;99.90;;;;;;4998570;28;19976;-85
2024/01/25 03:19:18;;;;;;;;;;;6.50;99.90;;;;;;5011945;28;19922;-85
2024/01/25 03:21:43;;;;;;;;;;;5.80;99.90;;;;;;5006607;28;19921;-85
2024/01/25 03:24:09;;;;;;;;;;;5.80;99.90;;;;;;4998829;28;19928;-85
2024/01/25 03:26:34;;;;;;;;;;;5.80;99.90;;;;;;5014787;28;19975;-85
2024/01/25 03:29:00;;;;;;;;;;;6.20;99.90;;;;;;5014488;28;19948;-85
2024/01/25 03:31:26;;;;;;;;;;;5.70;99.90;;;;;;5014002;28;20060;-85
2024/01/25 03:33:51;;;;;;;;;;;5.70;99.90;;;;;;4998074;28;19927;-85
2024/01/25 03:36:17;;;;;;;;;;;6.40;99.90;;;;;;5013755;28;20338;-84
2024/01/25 03:38:43;;;;;;;;;;;6.20;99.90;;;;;;5015061;28;19921;-86
2024/01/25 03:41:09;;;;;;;;;;;5.70;99.90;;;;;;4996988;28;19921;-85
2024/01/25 03:43:35;;;;;;;;;;;5.90;99.90;;;;;;4998510;28;20285;-85
2024/01/25 03:46:01;;;;;;;;;;;6.20;99.90;;;;;;5030112;28;19922;-85
2024/01/25 03:48:26;;;;;;;;;;;5.60;99.90;;;;;;5013881;28;19954;-86
2024/01/25 03:50:56;;;;;;;;;;;5.60;99.90;;;;;;5014146;28;19921;-85
2024/01/25 03:53:22;;;;;;;;;;;6.20;99.90;;;;;;5008202;28;20072;-85
2024/01/25 03:55:48;;;;;;;;;;;5.50;99.90;;;;;;5013232;28;20021;-85
2024/01/25 03:58:15;;;;;;;;;;;5.50;99.90;;;;;;4998265;28;19922;-85
2024/01/25 04:00:40;;;;;;;;;;;5.50;99.90;;;;;;4997403;28;19945;-85
2024/01/25 04:03:06;;;;;;;;;;;6.20;99.90;;;;;;5030592;28;19922;-85
2024/01/25 04:05:31;;;;;;;;;;;5.90;99.90;;;;;;5013249;28;19921;-84
2024/01/25 04:07:57;;;;;;;;;;;5.60;99.90;;;;;;5010836;28;19926;-85
2024/01/25 04:10:23;;;;;;;;;;;5.50;99.90;;;;;;5013658;28;19925;-85
2024/01/25 04:12:48;;;;;;;;;;;5.70;99.90;;;;;;5013014;28;20340;-85
2024/01/25 04:15:14;;;;;;;;;;;5.40;99.90;;;;;;4995849;28;19926;-86
2024/01/25 04:17:39;;;;;;;;;;;5.40;99.90;;;;;;4981709;28;19929;-85
2024/01/25 04:20:05;;;;;;;;;;;5.50;99.90;;;;;;4997876;28;19921;-85
2024/01/25 04:22:31;;;;;;;;;;;5.40;99.90;;;;;;4997865;28;19926;-85
2024/01/25 04:24:56;;;;;;;;;;;5.40;99.90;;;;;;4981743;28;20384;-86
2024/01/25 04:27:22;;;;;;;;;;;6.10;99.90;;;;;;4984813;28;19952;-85
2024/01/25 04:29:48;;;;;;;;;;;5.80;99.90;;;;;;5010645;28;20016;-85
2024/01/25 04:32:13;;;;;;;;;;;5.60;99.90;;;;;;5006088;28;19947;-85
2024/01/25 04:34:39;;;;;;;;;;;5.30;99.90;;;;;;5030019;28;19922;-85
2024/01/25 04:37:04;;;;;;;;;;;5.70;99.90;;;;;;5014178;28;19940;-85
2024/01/25 04:39:30;;;;;;;;;;;5.30;99.90;;;;;;5011835;28;20294;-85
2024/01/25 04:41:56;;;;;;;;;;;5.20;99.90;;;;;;5013415;28;20297;-85
2024/01/25 04:44:21;;;;;;;;;;;5.20;99.90;;;;;;5008119;28;19925;-86
2024/01/25 04:46:47;;;;;;;;;;;5.20;99.90;;;;;;5013723;28;19981;-85
2024/01/25 04:49:12;;;;;;;;;;;6.10;99.90;;;;;;4994140;28;19989;-85
2024/01/25 04:51:38;;;;;;;;;;;5.70;99.90;;;;;;5010201;28;19925;-85
2024/01/25 04:54:04;;;;;;;;;;;5.10;99.90;;;;;;5010602;28;19906;-85
2024/01/25 04:56:29;;;;;;;;;;;5.10;99.90;;;;;;4998293;28;19926;-84
2024/01/25 04:58:55;;;;;;;;;;;5.10;99.90;;;;;;4997885;28;19927;-84
2024/01/25 05:01:21;;;;;;;;;;;5.10;99.90;;;;;;4997053;28;19922;-84
2024/01/25 05:03:46;;;;;;;;;;;5.00;99.90;;;;;;5029437;28;19922;-84
2024/01/25 05:06:12;;;;;;;;;;;5.10;99.90;;;;;;4995480;28;20028;-84
2024/01/25 05:08:38;;;;;;;;;;;5.10;99.90;;;;;;5012868;28;20377;-84
2024/01/25 05:11:03;;;;;;;;;;;5.00;99.90;;;;;;4998051;28;20281;-84
2024/01/25 05:13:29;;;;;;;;;;;5.00;99.90;;;;;;4997587;28;20277;-84
2024/01/25 05:15:55;;;;;;;;;;;6.20;99.90;;;;;;4993940;28;20004;-84
2024/01/25 05:18:20;;;;;;;;;;;5.00;99.90;;;;;;5028220;28;19961;-85
2024/01/25 05:20:46;;;;;;;;;;;5.00;99.90;;;;;;5012666;28;19957;-84
2024/01/25 05:23:11;;;;;;;;;;;6.20;99.90;;;;;;5013256;28;19928;-84
2024/01/25 05:25:37;;;;;;;;;;;5.90;99.90;;;;;;5013962;28;19922;-84
2024/01/25 05:28:03;;;;;;;;;;;5.40;99.90;;;;;;4984539;28;19921;-84
2024/01/25 05:30:29;;;;;;;;;;;4.90;99.90;;;;;;5017329;28;19922;-84
2024/01/25 05:32:55;;;;;;;;;;;5.80;99.90;;;;;;5016843;28;20007;-84
2024/01/25 05:35:20;;;;;;;;;;;5.90;99.90;;;;;;5016706;28;19976;-85
2024/01/25 05:37:46;;;;;;;;;;;5.70;99.90;;;;;;5017310;28;19921;-84
2024/01/25 05:40:12;;;;;;;;;;;5.50;99.90;;;;;;5017755;28;19962;-85
2024/01/25 05:42:37;;;;;;;;;;;4.60;99.90;;;;;;5001355;28;19928;-85
2024/01/25 05:45:03;;;;;;;;;;;4.60;99.90;;;;;;5017371;28;19926;-85
2024/01/25 05:47:29;;;;;;;;;;;4.50;99.90;;;;;;5016081;28;19922;-85
2024/01/25 05:49:55;;;;;;;;;;;4.50;99.90;;;;;;5017084;28;19922;-85
2024/01/25 05:52:21;;;;;;;;;;;4.40;99.90;;;;;;5015449;28;20287;-85
2024/01/25 05:54:47;;;;;;;;;;;4.40;99.90;;;;;;5017101;28;20329;-83
2024/01/25 05:57:13;;;;;;;;;;;6.00;99.90;;;;;;5015282;28;19925;-84
2024/01/25 05:59:39;;;;;;;;;;;5.10;99.90;;;;;;5007125;28;20386;-85
2024/01/25 06:02:05;;;;;;;;;;;5.20;99.90;;;;;;5012899;28;19922;-85
2024/01/25 06:04:31;;;;;;;;;;;4.80;99.90;;;;;;5000798;28;19925;-86
2024/01/25 06:06:56;;;;;;;;;;;4.40;99.90;;;;;;4997244;28;19948;-85
2024/01/25 06:09:23;;;;;;;;;;;4.30;99.90;;;;;;4999338;28;20061;-85
2024/01/25 06:11:48;;;;;;;;;;;5.40;99.90;;;;;;4981447;28;19972;-85
2024/01/25 06:14:14;;;;;;;;;;;4.30;99.90;;;;;;5012910;28;19925;-85
2024/01/25 06:16:39;;;;;;;;;;;4.30;99.90;;;;;;5014180;28;19926;-84
2024/01/25 06:19:05;;;;;;;;;;;4.40;99.90;;;;;;4999718;28;19969;-85
2024/01/25 06:21:31;;;;;;;;;;;4.60;99.90;;;;;;4999448;28;19925;-85
2024/01/25 06:23:56;;;;;;;;;;;4.20;99.90;;;;;;5016460;28;19922;-85
2024/01/25 06:26:22;;;;;;;;;;;5.50;99.90;;;;;;4996339;28;19922;-85
2024/01/25 06:28:47;;;;;;;;;;;4.90;99.90;;;;;;5015119;28;20041;-85
2024/01/25 06:31:13;;;;;;;;;;;4.10;99.90;;;;;;5015796;28;20402;-85
2024/01/25 06:33:38;;;;;;;;;;;4.20;99.90;;;;;;5025744;28;19922;-85
2024/01/25 06:36:04;;;;;;;;;;;4.00;99.90;;;;;;4998757;28;19926;-85
2024/01/25 06:38:30;;;;;;;;;;;4.10;99.90;;;;;;5017193;28;20311;-85
2024/01/25 06:40:55;;;;;;;;;;;4.10;99.90;;;;;;4999400;28;20382;-86
2024/01/25 06:43:21;;;;;;;;;;;5.00;99.90;;;;;;5011583;28;19922;-85
2024/01/25 06:45:46;;;;;;;;;;;4.10;99.90;;;;;;5003369;28;19922;-85
2024/01/25 06:48:12;;;;;;;;;;;4.10;99.90;;;;;;4983086;28;19922;-85
2024/01/25 06:50:38;;;;;;;;;;;4.10;99.90;;;;;;4999306;28;19922;-86
2024/01/25 06:53:04;;;;;;;;;;;4.10;99.90;;;;;;5017130;28;20273;-85
2024/01/25 06:55:29;;;;;;;;;;;4.00;99.90;;;;;;4999810;28;19925;-85
2024/01/25 06:57:55;;;;;;;;;;;4.80;99.90;;;;;;5013003;28;20029;-85
2024/01/25 07:00:21;;;;;;;;;;;5.20;99.90;;;;;;5000356;28;20104;-86
2024/01/25 07:02:47;;;;;;;;;;;4.00;99.90;;;;;;5015647;28;20073;-85
2024/01/25 07:05:12;;;;;;;;;;;4.00;99.90;;;;;;4999193;28;20004;-84
2024/01/25 07:07:38;;;;;;;;;;;5.50;99.90;;;;;;4999242;28;19976;-85
2024/01/25 07:10:04;;;;;;;;;;;4.60;99.90;;;;;;4999704;28;19960;-85
2024/01/25 07:12:30;;;;;;;;;;;3.90;99.90;;;;;;5015564;28;19926;-86
2024/01/25 07:14:56;;;;;;;;;;;5.20;99.90;;;;;;5011501;28;19929;-85
2024/01/25 07:17:21;;;;;;;;;;;3.90;99.90;;;;;;5005649;28;19930;-84
2024/01/25 07:19:47;;;;;;;;;;;4.20;99.90;;;;;;5014494;28;20036;-84
2024/01/25 07:22:14;;;;;;;;;;;4.70;99.90;;;;;;5004073;28;20288;-85
2024/01/25 07:24:40;;;;;;;;;;;5.50;99.90;;;;;;5004908;28;19922;-85
2024/01/25 07:27:05;;;;;;;;;;;4.90;99.90;;;;;;5015329;28;19921;-85
2024/01/25 07:29:31;;;;;;;;;;;5.40;99.90;;;;;;5013925;28;19925;-86
2024/01/25 07:31:57;;;;;;;;;;;4.40;99.90;;;;;;5012092;28;19981;-85
2024/01/25 07:34:22;;;;;;;;;;;4.60;99.90;;;;;;5028697;28;19925;-85
2024/01/25 07:36:48;;;;;;;;;;;3.80;99.90;;;;;;4963685;28;19926;-85
2024/01/25 07:39:14;;;;;;;;;;;4.40;99.90;;;;;;5016057;28;19968;-85
2024/01/25 07:41:39;;;;;;;;;;;3.80;99.90;;;;;;5013418;28;20204;-85
2024/01/25 07:44:05;;;;;;;;;;;3.70;99.90;;;;;;5008694;28;19957;-84
2024/01/25 07:46:31;;;;;;;;;;;3.80;99.90;;;;;;5015572;28;19971;-85
2024/01/25 07:48:57;;;;;;;;;;;4.80;99.90;;;;;;5014487;28;19921;-85
2024/01/25 07:51:22;;;;;;;;;;;4.90;99.90;;;;;;5015242;28;19990;-85
2024/01/25 07:53:48;;;;;;;;;;;3.70;99.90;;;;;;5004100;28;20533;-84
2024/01/25 07:56:14;;;;;;;;;;;3.70;99.90;;;;;;4993769;28;19925;-85
2024/01/25 07:58:40;;;;;;;;;;;4.60;99.90;;;;;;5022077;28;19967;-83
2024/01/25 08:01:09;;;;;;;;;;;4.40;99.90;;;;;;5007367;28;19948;-85
2024/01/25 08:03:34;;;;;;;;;;;4.70;99.90;;;;;;4984508;28;19929;-84
2024/01/25 08:06:02;;;;;;;;;;;3.80;99.90;;;;;;4988654;28;19926;-84
2024/01/25 08:08:28;;;;;;;;;;;3.80;99.90;;;;;;5009697;28;20055;-85
2024/01/25 08:10:53;;;;;;;;;;;5.60;99.90;;;;;;5011162;28;20008;-85
2024/01/25 08:13:19;;;;;;;;;;;3.90;99.90;;;;;;5025107;28;19930;-83
2024/01/25 08:15:45;;;;;;;;;;;3.90;99.90;;;;;;5014115;28;19929;-85
2024/01/25 08:18:10;;;;;;;;;;;4.50;99.90;;;;;;4996493;28;19957;-85
2024/01/25 08:20:39;;;;;;;;;;;3.80;99.90;;;;;;4996850;28;19928;-85
2024/01/25 08:23:08;;;;;;;;;;;3.90;99.90;;;;;;4989507;28;20014;-84
2024/01/25 08:25:33;;;;;;;;;;;3.90;99.90;;;;;;5008130;28;20056;-85
2024/01/25 08:27:59;;;;;;;;;;;4.50;99.90;;;;;;5007290;28;20000;-85
2024/01/25 08:30:25;;;;;;;;;;;4.40;99.90;;;;;;5030161;28;19968;-84
2024/01/25 08:32:51;;;;;;;;;;;3.90;99.90;;;;;;5012981;28;19922;-84
2024/01/25 08:35:17;;;;;;;;;;;3.90;99.90;;;;;;4993802;28;20290;-87
2024/01/25 08:37:43;;;;;;;;;;;3.90;99.90;;;;;;4991286;28;19921;-84
2024/01/25 08:40:09;;;;;;;;;;;4.40;99.90;;;;;;4993797;28;19922;-85
2024/01/25 08:42:35;;;;;;;;;;;4.00;99.90;;;;;;5013097;28;19921;-84
2024/01/25 08:45:01;;;;;;;;;;;4.40;99.90;;;;;;5013168;28;20281;-85
2024/01/25 08:47:26;;;;;;;;;;;4.00;99.90;;;;;;4995353;28;20293;-85
2024/01/25 08:49:52;;;;;;;;;;;4.00;99.90;;;;;;5022715;28;19937;-85
2024/01/25 08:52:18;;;;;;;;;;;4.50;99.90;;;;;;5024030;28;19937;-86
2024/01/25 08:54:43;;;;;;;;;;;5.10;99.90;;;;;;5011584;28;19921;-86
2024/01/25 08:57:09;;;;;;;;;;;4.70;99.90;;;;;;4992880;28;20016;-86
2024/01/25 08:59:37;;;;;;;;;;;5.10;99.90;;;;;;4980967;28;19922;-85
2024/01/25 09:02:04;;;;;;;;;;;4.20;99.90;;;;;;5001122;28;20297;-85
2024/01/25 09:04:30;;;;;;;;;;;4.20;99.90;;;;;;5008940;28;19921;-85
2024/01/25 09:06:55;;;;;;;;;;;4.30;99.90;;;;;;5012242;28;19926;-85
2024/01/25 09:09:21;;;;;;;;;;;4.30;99.90;;;;;;5009685;28;20278;-85
2024/01/25 09:11:47;;;;;;;;;;;4.80;99.90;;;;;;5012850;28;19921;-84
2024/01/25 09:14:13;;;;;;;;;;;4.40;99.90;;;;;;5002736;28;20301;-84
2024/01/25 09:16:42;;;;;;;;;;;4.40;99.90;;;;;;4982174;28;19980;-85
2024/01/25 09:19:08;;;;;;;;;;;4.50;99.90;;;;;;4974780;28;20298;-84
2024/01/25 09:21:33;;;;;;;;;;;6.00;99.90;;;;;;4998631;28;19930;-84
2024/01/25 09:23:59;;;;;;;;;;;4.60;99.90;;;;;;5001055;28;19921;-84
2024/01/25 09:26:25;;;;;;;;;;;5.20;99.90;;;;;;4993023;28;19984;-85
2024/01/25 09:28:50;;;;;;;;;;;4.90;99.90;;;;;;4971594;28;20959;-86
2024/01/25 09:31:16;;;;;;;;;;;4.90;99.90;;;;;;4993868;28;19925;-85
2024/01/25 09:33:42;;;;;;;;;;;5.00;99.90;;;;;;4999308;28;19928;-85
2024/01/25 09:36:07;;;;;;;;;;;6.10;99.90;;;;;;4993685;28;19926;-84
2024/01/25 09:38:33;;;;;;;;;;;5.00;99.90;;;;;;5011751;28;19973;-85
2024/01/25 09:41:00;;;;;;;;;;;5.30;99.90;;;;;;4999576;28;19928;-83
2024/01/25 09:43:26;;;;;;;;;;;5.20;99.90;;;;;;4996592;28;19922;-86
2024/01/25 09:45:55;;;;;;;;;;;6.20;99.90;;;;;;5001245;28;19928;-85
2024/01/25 09:48:21;;;;;;;;;;;5.10;99.90;;;;;;4997758;28;19929;-85
2024/01/25 09:50:48;;;;;;;;;;;5.20;99.90;;;;;;4996224;28;19921;-84
2024/01/25 09:53:17;;;;;;;;;;;5.20;99.90;;;;;;4998126;28;19967;-84
2024/01/25 09:55:44;;;;;;;;;;;5.20;99.90;;;;;;4995271;28;19929;-86
2024/01/25 09:58:11;;;;;;;;;;;5.20;99.90;;;;;;4995568;28;20016;-85
2024/01/25 10:00:37;;;;;;;;;;;5.40;99.90;;;;;;4993810;28;19929;-85
2024/01/25 10:03:02;;;;;;;;;;;5.30;99.90;;;;;;5004386;28;19991;-86
2024/01/25 10:05:28;;;;;;;;;;;5.30;99.90;;;;;;4994804;28;19925;-86
2024/01/25 10:08:00;;;;;;;;;;;6.20;99.90;;;;;;5010679;28;19926;-86
2024/01/25 10:10:26;;;;;;;;;;;5.40;99.90;;;;;;5027456;28;20286;-86
2024/01/25 10:12:55;;;;;;;;;;;5.50;99.90;;;;;;5023317;28;19928;-86
2024/01/25 10:15:20;;;;;;;;;;;5.60;99.90;;;;;;4999888;28;19925;-85
2024/01/25 10:17:46;;;;;;;;;;;5.80;99.90;;;;;;5015217;28;20001;-83
2024/01/25 10:20:14;;;;;;;;;;;6.90;99.90;;;;;;5001662;28;20357;-85
2024/01/25 10:22:39;;;;;;;;;;;6.70;99.90;;;;;;5018456;28;19928;-86
2024/01/25 10:25:11;;;;;;;;;;;6.60;99.90;;;;;;5016640;28;19922;-86
2024/01/25 10:27:37;;;;;;;;;;;7.00;99.90;;;;;;4999821;28;20389;-86
2024/01/25 10:30:04;;;;;;;;;;;7.70;99.90;;;;;;5016871;28;19930;-86
2024/01/25 10:32:30;;;;;;;;;;;7.50;99.90;;;;;;5004658;28;19928;-86
2024/01/25 10:34:56;;;;;;;;;;;7.60;99.90;;;;;;5000134;28;20304;-86
2024/01/25 10:37:22;;;;;;;;;;;7.50;99.90;;;;;;5021806;28;19925;-85
2024/01/25 10:39:48;;;;;;;;;;;7.50;99.90;;;;;;5004120;28;19922;-86
2024/01/25 10:42:13;;;;;;;;;;;7.60;99.90;;;;;;5002812;28;19928;-85
2024/01/25 10:44:39;;;;;;;;;;;7.90;99.90;;;;;;5015920;28;20016;-86
2024/01/25 10:47:05;;;;;;;;;;;8.30;99.90;;;;;;5018733;28;19922;-87
2024/01/25 10:49:32;;;;;;;;;;;8.50;99.90;;;;;;5036320;28;19980;-87
2024/01/25 10:51:58;;;;;;;;;;;8.30;99.90;;;;;;4998920;28;19922;-86
2024/01/25 10:54:24;;;;;;;;;;;8.80;99.90;;;;;;4998140;28;19921;-87
2024/01/25 10:56:49;;;;;;;;;;;8.70;99.90;;;;;;5031199;28;20297;-85
2024/01/25 10:59:16;;;;;;;;;;;7.60;99.90;;;;;;5023294;28;19921;-86
2024/01/25 11:01:45;;;;;;;;;;;8.20;99.90;;;;;;5027860;28;19921;-86
2024/01/25 11:04:15;;;;;;;;;;;7.30;99.90;;;;;;5025937;28;19953;-87
2024/01/25 11:06:41;;;;;;;;;;;7.30;99.90;;;;;;5027827;28;19921;-86
2024/01/25 11:09:08;;;;;;;;;;;7.30;99.90;;;;;;5045938;28;20282;-86
2024/01/25 11:11:35;;;;;;;;;;;7.20;99.90;;;;;;5016841;28;19952;-86
2024/01/25 11:14:01;;;;;;;;;;;6.80;99.90;;;;;;5014622;28;19925;-85
2024/01/25 11:16:38;;;;;;;;;;;7.40;99.90;;;;;;5041592;28;19932;-86
2024/01/25 11:19:05;;;;;;;;;;;7.80;99.90;;;;;;5009847;28;19933;-85
2024/01/25 11:21:41;;;;;;;;;;;8.30;99.90;;;;;;5012417;28;19929;-85
2024/01/25 11:24:11;;;;;;;;;;;8.70;99.90;;;;;;4986303;28;19929;-86
2024/01/25 11:26:37;;;;;;;;;;;8.80;99.90;;;;;;4988847;28;19925;-84
2024/01/25 11:29:03;;;;;;;;;;;8.80;99.90;;;;;;4995408;28;19922;-85
2024/01/25 11:31:29;;;;;;;;;;;9.30;99.90;;;;;;4988793;28;19921;-85
2024/01/25 11:33:59;;;;;;;;;;;8.80;99.90;;;;;;5008755;28;20024;-86
2024/01/25 11:36:24;;;;;;;;;;;8.90;99.90;;;;;;5018557;28;19964;-85
2024/01/25 11:38:50;;;;;;;;;;;9.10;99.90;;;;;;5012363;28;20330;-85
2024/01/25 11:41:16;;;;;;;;;;;9.40;99.90;;;;;;5003736;28;20966;-86
2024/01/25 11:43:42;;;;;;;;;;;9.70;99.90;;;;;;4995966;28;19976;-86
2024/01/25 11:46:08;;;;;;;;;;;9.80;99.90;;;;;;4993251;28;19992;-86
2024/01/25 11:48:38;;;;;;;;;;;9.80;99.90;;;;;;4978953;28;20719;-86
2024/01/25 11:51:04;;;;;;;;;;;9.60;99.90;;;;;;4995427;28;19971;-86
2024/01/25 11:53:29;;;;;;;;;;;9.40;99.90;;;;;;5008005;28;20354;-85
2024/01/25 11:55:55;;;;;;;;;;;9.10;99.90;;;;;;5005646;28;19972;-87
2024/01/25 11:58:21;;;;;;;;;;;8.90;99.90;;;;;;5011411;28;21551;-86
2024/01/25 12:00:47;;;;;;;;;;;8.80;99.90;;;;;;5013308;28;19937;-87
2024/01/25 12:03:13;;;;;;;;;;;8.70;99.90;;;;;;4997447;28;20005;-85
2024/01/25 12:05:39;;;;;;;;;;;7.70;99.90;;;;;;5013966;28;19922;-87
2024/01/25 12:08:09;;;;;;;;;;;9.10;99.90;;;;;;5013810;28;19925;-87
2024/01/25 12:10:35;;;;;;;;;;;8.50;99.90;;;;;;4997618;28;20423;-88
2024/01/25 12:13:00;;;;;;;;;;;8.30;99.90;;;;;;5025951;28;19980;-86
2024/01/25 12:15:26;;;;;;;;;;;8.20;99.90;;;;;;5011368;28;19930;-88
2024/01/25 12:17:52;;;;;;;;;;;8.20;99.90;;;;;;5029377;28;19921;-89
2024/01/25 12:20:18;;;;;;;;;;;8.60;99.90;;;;;;4998121;28;19928;-89
2024/01/25 12:22:44;;;;;;;;;;;8.20;99.90;;;;;;4990510;28;20358;-86
2024/01/25 12:25:10;;;;;;;;;;;8.20;99.90;;;;;;4994320;28;20374;-88
2024/01/25 12:27:37;;;;;;;;;;;8.40;99.90;;;;;;5016442;28;19930;-87
2024/01/25 12:30:03;;;;;;;;;;;8.50;99.90;;;;;;4994483;28;19921;-86
2024/01/25 12:32:29;;;;;;;;;;;8.60;99.90;;;;;;5011253;28;19921;-85
2024/01/25 12:34:55;;;;;;;;;;;8.60;99.90;;;;;;5012355;28;19928;-86
2024/01/25 12:37:21;;;;;;;;;;;8.60;99.90;;;;;;4996719;28;19930;-85
2024/01/25 12:39:47;;;;;;;;;;;8.70;99.90;;;;;;4996835;28;19922;-85
2024/01/25 12:42:13;;;;;;;;;;;8.80;99.90;;;;;;5007967;28;19925;-86
2024/01/25 12:44:39;;;;;;;;;;;8.90;99.90;;;;;;5025943;28;20085;-85
2024/01/25 12:47:06;;;;;;;;;;;9.10;99.90;;;;;;4997115;28;20389;-85
2024/01/25 12:49:32;;;;;;;;;;;9.20;99.90;;;;;;4991728;28;20004;-85
2024/01/25 12:51:57;;;;;;;;;;;9.40;99.90;;;;;;5012814;28;19965;-84
2024/01/25 12:54:23;;;;;;;;;;;9.50;99.90;;;;;;4997152;28;19928;-86
2024/01/25 12:56:49;;;;;;;;;;;10.10;99.90;;;;;;5013324;28;19937;-86
2024/01/25 12:59:15;;;;;;;;;;;10.10;99.90;;;;;;5012532;28;20476;-86
2024/01/25 13:01:40;;;;;;;;;;;10.20;99.90;;;;;;5011940;28;19929;-86
2024/01/25 13:04:06;;;;;;;;;;;10.30;99.90;;;;;;4993166;28;19972;-86
2024/01/25 13:06:31;;;;;;;;;;;10.10;99.90;;;;;;4996704;28;19921;-85
2024/01/25 13:08:57;;;;;;;;;;;10.00;99.90;;;;;;5027446;28;19933;-86
2024/01/25 13:11:23;;;;;;;;;;;9.80;99.90;;;;;;5013459;28;19925;-86
2024/01/25 13:13:48;;;;;;;;;;;9.70;99.90;;;;;;5009741;28;20009;-86
2024/01/25 13:16:14;;;;;;;;;;;9.60;99.90;;;;;;5029556;28;19940;-86
2024/01/25 13:18:39;;;;;;;;;;;9.40;99.90;;;;;;5012739;28;19921;-85
2024/01/25 13:21:05;;;;;;;;;;;9.30;99.90;;;;;;5013402;28;20009;-86
2024/01/25 13:23:30;;;;;;;;;;;9.10;99.90;;;;;;5000446;28;19921;-86
2024/01/25 13:25:56;;;;;;;;;;;9.00;99.90;;;;;;5011786;28;19929;-86
2024/01/25 13:28:22;;;;;;;;;;;8.90;99.90;;;;;;5012787;28;20440;-86
2024/01/25 13:30:47;;;;;;;;;;;9.00;99.90;;;;;;4995029;28;19922;-86
2024/01/25 13:33:13;;;;;;;;;;;9.60;99.90;;;;;;5011529;28;19935;-85
2024/01/25 13:35:38;;;;;;;;;;;8.80;99.90;;;;;;5007179;28;19980;-85
2024/01/25 13:38:04;;;;;;;;;;;8.80;99.90;;;;;;4994452;28;20290;-85
2024/01/25 13:40:30;;;;;;;;;;;8.80;99.90;;;;;;5012850;28;19921;-85
2024/01/25 13:42:56;;;;;;;;;;;8.80;99.90;;;;;;4996143;28;19921;-85
2024/01/25 13:45:22;;;;;;;;;;;8.70;99.90;;;;;;5011168;28;19933;-85
2024/01/25 13:47:47;;;;;;;;;;;8.80;99.90;;;;;;5015112;28;19921;-85
2024/01/25 13:50:13;;;;;;;;;;;8.80;99.90;;;;;;5016376;28;19921;-84
2024/01/25 13:52:39;;;;;;;;;;;8.80;99.90;;;;;;5016231;28;19921;-86
2024/01/25 13:55:05;;;;;;;;;;;8.70;99.90;;;;;;4988352;28;20004;-85
2024/01/25 13:57:31;;;;;;;;;;;8.70;99.90;;;;;;5028841;28;19929;-86
2024/01/25 13:59:56;;;;;;;;;;;8.70;99.90;;;;;;5009671;28;19968;-85
2024/01/25 14:02:22;;;;;;;;;;;8.70;99.90;;;;;;5017624;28;19963;-86
2024/01/25 14:04:47;;;;;;;;;;;8.70;99.90;;;;;;5011747;28;19928;-86
2024/01/25 14:07:16;;;;;;;;;;;8.70;99.90;;;;;;5012192;28;21885;-86
2024/01/25 14:09:42;;;;;;;;;;;8.70;99.90;;;;;;5017576;28;19925;-85
2024/01/25 14:12:08;;;;;;;;;;;8.70;99.90;;;;;;5000449;28;19973;-84
2024/01/25 14:14:33;;;;;;;;;;;8.70;99.90;;;;;;4998052;28;20293;-85
2024/01/25 14:16:59;;;;;;;;;;;8.70;99.90;;;;;;5027633;28;20378;-86
2024/01/25 14:19:24;;;;;;;;;;;8.60;99.90;;;;;;5031557;28;19922;-85
2024/01/25 14:21:50;;;;;;;;;;;8.60;99.90;;;;;;5016953;28;19928;-85
2024/01/25 14:24:16;;;;;;;;;;;8.60;99.90;;;;;;5016208;28;19928;-85